Terminal Aerodrome Forecast
Issued by NWS Paducah, KY

Home | Current Version | Previous Version | Text Only | Print | Product List | Glossary On
Versions: 1 2 3 4 5 6 7 8 9 10 11 12 13 14 15 16
000
FTUS43 KPAH 271700
TAFPAH
TAF
KPAH 271729Z 2718/2818 VRB04KT P6SM SCT035
     FM280100 00000KT P6SM SCT250
     FM280800 00000KT 4SM BR SCT250
      TEMPO 2809/2813 1SM BR
     FM281500 10003KT P6SM SCT050=

USA.gov is the U.S. government's official web portal to all federal, state and local government web resources and services.